KHOT/HOT METAR and TAF weather

Enter ICAO airport designator
Station Type Date Time Source
KHOT METAR 2019/05/25 09:53 UTC NOAA

KHOT 250953Z AUTO 10003KT 10SM CLR 22/21 A3007 RMK AO2 SLP176 T02220206


Station Type Date Time Source
KHOT Decoded METAR 2019/05/25 09:53 UTC NOAA

HOT SPRINGS MEMORIAL FIELD, AR, United States (KHOT) 34-29N 093-06W 162M
May 25, 2019 - 05:53 AM EDT / 2019.05.25 0953 UTC
Wind: from the E (100 degrees) at 3 MPH (3 KT):0
Visibility: 10 mile(s):0
Sky conditions: clear
Temperature: 72.0 F (22.2 C)
Dew Point: 69.1 F (20.6 C)
Relative Humidity: 90%
Pressure (altimeter): 30.07 in. Hg (1018 hPa)
ob: KHOT 250953Z AUTO 10003KT 10SM CLR 22/21 A3007 RMK AO2 SLP176 T02220206
cycle: 10

Station Type Date Time Source
KHOT TAF 2019/05/25 06:33 UTC NOAA

TAF KHOT 250530Z 2506/2606 00000KT P6SM SCT040 OVC250
FM251500 22009KT P6SM SCT250
FM260100 17003KT P6SM SCT250

Example: see airport list